createdAt,value
2022-12-01T00:01:18.000Z,25.00
2022-12-01T00:03:44.928Z,27.23
2022-12-01T00:06:15.887Z,25.13
2022-12-01T00:09:06.668Z,27.15
2022-12-01T00:11:35.047Z,25.52
2022-12-01T00:14:02.177Z,27.77
2022-12-01T00:16:30.715Z,27.75
2022-12-01T00:18:57.556Z,28.98
2022-12-01T00:21:26.354Z,28.13
2022-12-01T00:23:56.239Z,28.52
2022-12-01T00:28:58.145Z,28.38
2022-12-01T00:31:25.790Z,30.02
2022-12-01T00:33:53.219Z,29.58
2022-12-01T00:36:22.331Z,28.40
2022-12-01T00:38:53.296Z,29.27
2022-12-01T00:41:21.038Z,27.35
2022-12-01T00:43:48.084Z,27.88
2022-12-01T00:46:15.164Z,28.55
2022-12-01T00:48:42.288Z,25.83
2022-12-01T00:51:09.294Z,25.08
2022-12-01T00:53:36.301Z,27.73
2022-12-01T00:56:03.485Z,25.52
2022-12-01T00:58:30.333Z,22.92
2022-12-01T01:00:59.008Z,26.33
2022-12-01T01:03:27.564Z,26.35
2022-12-01T01:05:54.377Z,27.48
2022-12-01T01:08:21.755Z,26.27
2022-12-01T01:10:49.092Z,25.48
2022-12-01T01:13:17.232Z,26.50
2022-12-01T01:15:45.023Z,26.27
2022-12-01T01:18:12.488Z,26.50
2022-12-01T01:20:39.624Z,27.83
2022-12-01T01:23:06.670Z,27.98
2022-12-01T01:25:33.877Z,28.85
2022-12-01T01:28:00.706Z,28.23
2022-12-01T01:30:27.742Z,28.33
2022-12-01T01:32:54.752Z,27.88
2022-12-01T01:35:21.849Z,30.48
2022-12-01T01:37:50.817Z,29.55
2022-12-01T01:40:18.154Z,28.97
2022-12-01T01:42:44.994Z,30.85
2022-12-01T01:45:24.933Z,29.55
2022-12-01T01:50:24.189Z,27.52
2022-12-01T01:53:02.430Z,31.13
2022-12-01T01:55:31.779Z,29.08
2022-12-01T01:57:59.340Z,30.13
2022-12-01T02:00:25.993Z,28.40
2022-12-01T02:02:53.661Z,30.60
2022-12-01T02:05:29.532Z,31.98
2022-12-01T02:07:58.627Z,29.63
2022-12-01T02:10:45.764Z,29.60
2022-12-01T02:13:34.611Z,29.38
2022-12-01T02:16:20.158Z,27.92
2022-12-01T02:19:16.003Z,30.73
2022-12-01T02:22:12.223Z,30.25
2022-12-01T02:25:23.870Z,29.02
2022-12-01T02:27:56.666Z,30.85
2022-12-01T02:30:29.227Z,29.45
2022-12-01T02:33:11.172Z,30.05
2022-12-01T02:35:59.490Z,31.48
2022-12-01T02:38:36.843Z,31.27
2022-12-01T02:41:16.738Z,32.05
2022-12-01T02:46:17.011Z,30.90
2022-12-01T02:48:48.420Z,31.83
2022-12-01T02:51:28.880Z,31.45
2022-12-01T02:53:58.506Z,32.53
2022-12-01T02:56:26.011Z,31.30
2022-12-01T02:58:53.096Z,34.70
2022-12-01T03:01:42.305Z,33.53
2022-12-01T03:04:35.488Z,33.25
2022-12-01T03:07:19.204Z,34.17
2022-12-01T03:10:19.888Z,33.17
2022-12-01T03:13:14.041Z,32.95
2022-12-01T03:15:53.200Z,35.10
2022-12-01T03:18:46.945Z,32.55
2022-12-01T03:21:24.484Z,31.58
2022-12-01T03:23:56.430Z,31.85
2022-12-01T03:26:27.536Z,31.25
2022-12-01T03:29:02.139Z,32.97
2022-12-01T03:31:37.876Z,30.52
2022-12-01T03:34:24.279Z,33.83
2022-12-01T03:36:58.888Z,32.47
2022-12-01T03:39:35.520Z,33.08
2022-12-01T03:42:22.549Z,31.85
2022-12-01T03:44:54.214Z,33.15
2022-12-01T03:47:27.360Z,30.65
2022-12-01T03:49:55.702Z,30.92
2022-12-01T03:52:49.488Z,30.25
2022-12-01T03:55:32.488Z,30.83
2022-12-01T03:58:24.336Z,33.33
2022-12-01T04:00:57.501Z,33.75
2022-12-01T04:03:26.257Z,29.42
2022-12-01T04:05:53.381Z,27.95
2022-12-01T04:08:20.519Z,31.13
2022-12-01T04:10:47.354Z,29.58
2022-12-01T04:13:22.913Z,28.30
2022-12-01T04:15:51.307Z,28.20
2022-12-01T04:18:19.095Z,28.73
2022-12-01T04:20:47.368Z,27.63
2022-12-01T04:23:33.161Z,24.48
2022-12-01T04:26:01.627Z,27.88
2022-12-01T04:28:28.756Z,27.58
2022-12-01T04:30:55.793Z,26.27
2022-12-01T04:33:22.687Z,26.65
2022-12-01T04:35:59.834Z,23.05
2022-12-01T04:38:30.583Z,25.25
2022-12-01T04:40:58.308Z,27.67
2022-12-01T04:43:25.214Z,30.23
2022-12-01T04:45:52.233Z,24.33
2022-12-01T04:48:19.275Z,29.63
2022-12-01T04:50:49.160Z,29.02
2022-12-01T04:55:42.892Z,25.35
2022-12-01T04:58:09.935Z,26.45
2022-12-01T05:00:37.842Z,27.27
2022-12-01T05:03:04.930Z,31.40
2022-12-01T05:05:31.910Z,29.15
2022-12-01T05:07:59.614Z,25.88
2022-12-01T05:10:26.638Z,24.73
2022-12-01T05:12:55.068Z,27.58
2022-12-01T05:15:21.772Z,26.58
2022-12-01T05:17:48.815Z,25.45
2022-12-01T05:20:40.709Z,25.17
2022-12-01T05:23:09.750Z,25.55
2022-12-01T05:25:39.105Z,23.13
2022-12-01T05:28:06.633Z,21.92
2022-12-01T05:30:33.517Z,25.23
2022-12-01T05:33:00.691Z,24.33
2022-12-01T05:35:27.735Z,21.80
2022-12-01T05:37:54.797Z,27.38
2022-12-01T05:40:21.708Z,22.77
2022-12-01T05:42:48.755Z,26.50
2022-12-01T05:45:16.828Z,23.98
2022-12-01T05:47:43.833Z,25.38
2022-12-01T05:50:11.182Z,25.02
2022-12-01T05:52:38.161Z,24.60
2022-12-01T05:55:06.768Z,25.52
2022-12-01T05:57:33.794Z,26.10
2022-12-01T06:00:00.564Z,24.13
2022-12-01T06:02:27.680Z,24.50
2022-12-01T06:04:54.814Z,24.90
2022-12-01T06:07:23.454Z,24.75
2022-12-01T06:09:52.157Z,23.70
2022-12-01T06:12:19.914Z,21.42
2022-12-01T06:14:46.942Z,25.65
2022-12-01T06:17:14.035Z,24.42
2022-12-01T06:19:41.182Z,25.05
2022-12-01T06:22:08.051Z,23.85
2022-12-01T06:24:34.718Z,26.73
2022-12-01T06:27:01.848Z,25.13
2022-12-01T06:29:28.808Z,27.70
2022-12-01T06:31:55.961Z,29.15
2022-12-01T06:34:23.164Z,23.00
2022-12-01T06:36:50.168Z,26.55
2022-12-01T06:39:17.157Z,23.95
2022-12-01T06:41:44.908Z,24.08
2022-12-01T06:44:11.992Z,24.95
2022-12-01T06:46:39.380Z,26.92
2022-12-01T06:49:06.569Z,24.20
2022-12-01T06:51:34.311Z,24.65
2022-12-01T06:54:05.452Z,25.92
2022-12-01T06:56:32.516Z,26.08
2022-12-01T06:58:59.548Z,23.85
2022-12-01T07:01:26.792Z,23.85
2022-12-01T07:03:53.551Z,25.42
2022-12-01T07:06:20.947Z,21.08
2022-12-01T07:08:47.728Z,25.10
2022-12-01T07:11:16.013Z,25.65
2022-12-01T07:13:46.465Z,28.60
2022-12-01T07:16:13.427Z,24.75
2022-12-01T07:18:40.723Z,24.83
2022-12-01T07:21:14.718Z,24.20
2022-12-01T07:23:41.963Z,23.98
2022-12-01T07:26:15.804Z,27.17
2022-12-01T07:28:43.696Z,25.67
2022-12-01T07:31:15.898Z,23.23
2022-12-01T07:33:42.884Z,27.23
2022-12-01T07:36:11.775Z,25.88
2022-12-01T07:38:39.147Z,20.17
2022-12-01T07:41:11.946Z,32.20
2022-12-01T07:43:39.509Z,25.38
2022-12-01T07:46:10.135Z,26.88
2022-12-01T07:48:38.302Z,28.10
2022-12-01T07:51:06.606Z,33.78
2022-12-01T07:53:33.688Z,27.83
2022-12-01T07:56:04.341Z,26.80
2022-12-01T07:58:35.431Z,28.58
2022-12-01T08:01:14.749Z,28.40
2022-12-01T08:03:42.335Z,27.08
2022-12-01T08:06:09.999Z,27.30
2022-12-01T08:08:38.694Z,27.77
2022-12-01T08:11:10.586Z,29.90
2022-12-01T08:13:37.404Z,26.65
2022-12-01T08:16:05.682Z,27.45
2022-12-01T08:18:35.506Z,29.65
2022-12-01T08:21:02.965Z,26.17
2022-12-01T08:23:30.380Z,27.75
2022-12-01T08:26:04.842Z,27.13
2022-12-01T08:28:31.932Z,26.45
2022-12-01T08:30:58.731Z,25.77
2022-12-01T08:33:25.556Z,26.75
2022-12-01T08:35:52.805Z,24.98
2022-12-01T08:38:19.618Z,27.38
2022-12-01T08:40:46.759Z,37.53
2022-12-01T08:43:41.535Z,25.67
2022-12-01T08:46:02.269Z,26.77
2022-12-01T08:48:30.075Z,27.98
2022-12-01T08:51:03.137Z,26.65
2022-12-01T08:53:31.010Z,26.85
2022-12-01T08:56:14.536Z,26.85
2022-12-01T08:58:41.524Z,26.27
2022-12-01T09:01:11.491Z,27.40
2022-12-01T09:03:39.818Z,30.05
2022-12-01T09:06:09.461Z,26.98
2022-12-01T09:08:36.947Z,30.40
2022-12-01T09:11:07.290Z,32.30
2022-12-01T09:13:35.482Z,30.50
2022-12-01T09:16:05.481Z,29.13
2022-12-01T09:18:32.910Z,30.05
2022-12-01T09:21:00.032Z,32.85
2022-12-01T09:23:26.942Z,30.50
2022-12-01T09:25:54.035Z,29.75
2022-12-01T09:28:21.026Z,31.05
2022-12-01T09:30:47.667Z,29.45
2022-12-01T09:33:14.675Z,32.60
2022-12-01T09:35:41.408Z,33.85
2022-12-01T09:38:08.211Z,32.58
2022-12-01T09:40:40.402Z,30.13
2022-12-01T09:43:17.421Z,32.67
2022-12-01T09:45:50.948Z,30.95
2022-12-01T09:48:26.626Z,29.30
2022-12-01T09:50:53.843Z,26.23
2022-12-01T09:53:24.713Z,29.42
2022-12-01T09:55:53.203Z,26.42
2022-12-01T09:58:30.826Z,29.95
2022-12-01T10:00:58.389Z,29.52
2022-12-01T10:03:45.533Z,27.77
2022-12-01T10:06:28.734Z,29.95
2022-12-01T10:09:17.480Z,30.63
2022-12-01T10:11:45.895Z,24.30
2022-12-01T10:14:19.949Z,30.73
2022-12-01T10:17:10.572Z,28.13
2022-12-01T10:19:58.814Z,28.00
2022-12-01T10:22:44.036Z,25.20
2022-12-01T10:25:17.023Z,28.80
2022-12-01T10:28:21.980Z,26.17
2022-12-01T10:30:53.179Z,26.65
2022-12-01T10:33:30.443Z,30.25
2022-12-01T10:35:57.846Z,31.63
2022-12-01T10:38:31.617Z,30.92
2022-12-01T10:41:01.175Z,27.48
2022-12-01T10:43:43.864Z,28.38
2022-12-01T10:46:40.352Z,28.77
2022-12-01T10:49:13.345Z,25.45
2022-12-01T10:51:57.825Z,24.25
2022-12-01T10:54:39.388Z,29.00
2022-12-01T10:57:13.976Z,25.75
2022-12-01T10:59:52.703Z,26.77
2022-12-01T11:02:26.109Z,27.93
2022-12-01T11:05:02.558Z,26.38
2022-12-01T11:07:34.781Z,24.65
2022-12-01T11:10:04.821Z,29.75
2022-12-01T11:12:31.938Z,26.67
2022-12-01T11:14:59.332Z,24.38
2022-12-01T11:17:41.692Z,23.40
2022-12-01T11:20:39.164Z,23.77
2022-12-01T11:23:29.965Z,26.08
2022-12-01T11:25:59.184Z,24.08
2022-12-01T11:28:26.390Z,24.35
2022-12-01T11:30:58.960Z,23.48
2022-12-01T11:33:27.689Z,23.85
2022-12-01T11:35:55.611Z,23.50
2022-12-01T11:38:30.122Z,27.17
2022-12-01T11:40:58.426Z,25.10
2022-12-01T11:43:27.727Z,24.70
2022-12-01T11:45:56.806Z,27.90
2022-12-01T11:48:25.761Z,26.50
2022-12-01T11:51:32.360Z,24.10
2022-12-01T11:54:13.591Z,22.77
2022-12-01T11:56:41.728Z,24.00
2022-12-01T11:59:18.255Z,25.48
2022-12-01T12:02:00.227Z,24.73
2022-12-01T12:04:27.180Z,26.30
2022-12-01T12:07:21.970Z,28.52
2022-12-01T12:10:23.802Z,25.42
2022-12-01T12:12:53.463Z,23.83
2022-12-01T12:15:30.994Z,24.92
2022-12-01T12:18:42.091Z,24.33
2022-12-01T12:21:14.782Z,22.38
2022-12-01T12:24:14.138Z,22.02
2022-12-01T12:26:51.998Z,22.77
2022-12-01T12:29:33.635Z,21.80
2022-12-01T12:32:22.424Z,24.25
2022-12-01T12:34:52.009Z,20.02
2022-12-01T12:37:53.067Z,27.48
2022-12-01T12:40:38.512Z,20.77
2022-12-01T12:43:31.089Z,19.40
2022-12-01T12:46:07.321Z,21.15
2022-12-01T12:49:03.502Z,20.95
2022-12-01T12:51:46.492Z,24.15
2022-12-01T12:54:27.676Z,18.95
2022-12-01T12:57:03.136Z,17.52
2022-12-01T12:59:52.098Z,17.48
2022-12-01T13:02:31.487Z,17.40
2022-12-01T13:05:29.677Z,18.88
2022-12-01T13:08:16.626Z,20.00
2022-12-01T13:10:49.014Z,24.05
2022-12-01T13:13:39.243Z,19.13
2022-12-01T13:16:21.307Z,18.60
2022-12-01T13:19:04.948Z,20.20
2022-12-01T13:21:39.237Z,20.33
2022-12-01T13:24:07.243Z,19.17
2022-12-01T13:26:37.648Z,18.98
2022-12-01T13:29:07.181Z,20.95
2022-12-01T13:31:48.247Z,22.70
2022-12-01T13:34:43.277Z,22.17
2022-12-01T13:37:10.907Z,20.45
2022-12-01T13:39:40.983Z,20.98
2022-12-01T13:42:09.099Z,22.90
2022-12-01T13:44:44.674Z,22.60
2022-12-01T13:47:11.330Z,21.02
2022-12-01T13:49:45.081Z,20.02
2022-12-01T13:52:21.184Z,22.38
2022-12-01T13:55:11.976Z,20.63
2022-12-01T13:57:40.367Z,23.05
2022-12-01T14:00:43.045Z,20.38
2022-12-01T14:03:12.808Z,16.40
2022-12-01T14:05:56.168Z,14.48
2022-12-01T14:08:30.232Z,17.35
2022-12-01T14:11:15.984Z,19.92
2022-12-01T14:14:05.259Z,19.30
2022-12-01T14:17:04.948Z,21.45
2022-12-01T14:19:48.474Z,18.52
2022-12-01T14:22:36.997Z,29.15
2022-12-01T14:25:07.660Z,21.10
2022-12-01T14:27:40.452Z,25.33
2022-12-01T14:30:41.372Z,18.40
2022-12-01T14:33:38.878Z,18.50
2022-12-01T14:36:24.199Z,18.33
2022-12-01T14:38:54.075Z,22.23
2022-12-01T14:44:03.527Z,16.17
2022-12-01T14:46:45.753Z,23.50
2022-12-01T14:49:35.073Z,19.27
2022-12-01T14:52:09.477Z,15.75
2022-12-01T14:54:57.925Z,22.33
2022-12-01T14:57:39.754Z,16.08
2022-12-01T15:00:16.456Z,16.88
2022-12-01T15:02:52.623Z,16.77
2022-12-01T15:05:27.162Z,18.73
2022-12-01T15:08:18.779Z,18.52
2022-12-01T15:10:55.112Z,15.25
2022-12-01T15:13:30.497Z,20.73
2022-12-01T15:16:12.765Z,24.42
2022-12-01T15:18:39.754Z,15.82
2022-12-01T15:21:17.507Z,15.27
2022-12-01T15:24:03.018Z,15.82
2022-12-01T15:26:35.493Z,16.13
2022-12-01T15:29:19.276Z,18.58
2022-12-01T15:31:56.927Z,15.60
2022-12-01T15:34:26.305Z,17.00
2022-12-01T15:36:54.327Z,18.33
2022-12-01T15:39:27.025Z,13.15
2022-12-01T15:41:55.631Z,12.63
2022-12-01T15:44:42.934Z,13.23
2022-12-01T15:47:36.779Z,10.63
2022-12-01T15:50:05.435Z,10.65
2022-12-01T15:52:33.269Z,10.32
2022-12-01T15:55:03.678Z,10.05
2022-12-01T15:57:30.948Z,9.93
2022-12-01T15:59:58.133Z,7.82
2022-12-01T16:02:33.367Z,9.38
2022-12-01T16:05:23.796Z,9.40
2022-12-01T16:08:12.549Z,14.98
2022-12-01T16:10:37.688Z,12.25
2022-12-01T16:13:35.410Z,12.95
2022-12-01T16:16:39.842Z,18.67
2022-12-01T16:19:09.664Z,16.60
2022-12-01T16:21:51.307Z,13.00
2022-12-01T16:24:30.430Z,20.63
2022-12-01T16:27:01.738Z,15.05
2022-12-01T16:29:31.482Z,13.93
2022-12-01T16:32:20.363Z,15.30
2022-12-01T16:34:49.259Z,24.38
2022-12-01T16:37:16.264Z,14.18
2022-12-01T16:39:44.331Z,19.83
2022-12-01T16:42:14.194Z,17.70
2022-12-01T16:47:19.388Z,15.88
2022-12-01T16:49:46.717Z,16.38
2022-12-01T16:55:00.954Z,15.43
2022-12-01T16:57:27.968Z,23.48
2022-12-01T16:59:54.588Z,15.23
2022-12-01T17:02:21.350Z,21.58
2022-12-01T17:04:48.485Z,32.63
2022-12-01T17:07:15.391Z,17.42
2022-12-01T17:09:42.452Z,16.63
2022-12-01T17:12:09.720Z,16.15
2022-12-01T17:14:37.879Z,16.40
2022-12-01T17:17:04.797Z,17.88
2022-12-01T17:19:31.825Z,16.90
2022-12-01T17:21:58.740Z,15.38
2022-12-01T17:24:30.415Z,16.23
2022-12-01T17:26:57.069Z,17.02
2022-12-01T17:29:23.703Z,18.13
2022-12-01T17:31:50.434Z,16.70
2022-12-01T17:34:17.630Z,17.40
2022-12-01T17:36:44.580Z,18.15
2022-12-01T17:39:11.507Z,16.48
2022-12-01T17:41:40.933Z,16.27
2022-12-01T17:44:08.864Z,19.73
2022-12-01T17:46:35.717Z,18.98
2022-12-01T17:49:08.452Z,23.83
2022-12-01T17:51:36.661Z,18.60
2022-12-01T17:54:04.019Z,20.58
2022-12-01T17:56:30.727Z,21.13
2022-12-01T17:58:57.744Z,23.67
2022-12-01T18:01:29.935Z,21.35
2022-12-01T18:03:58.967Z,21.35
2022-12-01T18:06:26.868Z,24.77
2022-12-01T18:08:53.731Z,21.38
2022-12-01T18:11:22.819Z,23.65
2022-12-01T18:13:51.299Z,21.75
2022-12-01T18:16:24.297Z,25.45
2022-12-01T18:18:51.936Z,22.05
2022-12-01T18:21:20.509Z,22.65
2022-12-01T18:24:09.180Z,21.52
2022-12-01T18:26:38.249Z,23.02
2022-12-01T18:29:25.596Z,23.23
2022-12-01T18:31:56.268Z,23.27
2022-12-01T18:34:23.591Z,22.02
2022-12-01T18:36:50.771Z,28.13
2022-12-01T18:39:17.763Z,21.90
2022-12-01T18:41:44.767Z,25.98
2022-12-01T18:44:11.847Z,24.80
2022-12-01T18:46:38.725Z,25.23
2022-12-01T18:49:07.217Z,24.60
2022-12-01T18:51:36.562Z,23.75
2022-12-01T18:54:05.435Z,25.15
2022-12-01T18:56:32.332Z,28.65
2022-12-01T18:59:05.403Z,25.02
2022-12-01T19:01:36.124Z,23.10
2022-12-01T19:04:03.715Z,24.88
2022-12-01T19:06:32.732Z,24.73
2022-12-01T19:09:01.198Z,25.30
2022-12-01T19:11:29.007Z,24.42
2022-12-01T19:13:56.578Z,24.83
2022-12-01T19:16:24.202Z,25.65
2022-12-01T19:18:51.132Z,26.05
2022-12-01T19:21:19.287Z,24.60
2022-12-01T19:23:46.742Z,23.92
2022-12-01T19:26:19.651Z,23.52
2022-12-01T19:28:47.904Z,26.13
2022-12-01T19:31:17.604Z,24.88
2022-12-01T19:33:45.108Z,24.42
2022-12-01T19:36:15.996Z,24.45
2022-12-01T19:38:44.534Z,24.73
2022-12-01T19:41:12.878Z,23.20
2022-12-01T19:43:40.237Z,25.75
2022-12-01T19:46:22.400Z,24.48
2022-12-01T19:48:55.060Z,24.60
2022-12-01T19:51:28.169Z,24.15
2022-12-01T19:53:55.979Z,24.88
2022-12-01T19:56:23.709Z,25.33
2022-12-01T19:58:50.728Z,24.70
2022-12-01T20:01:18.545Z,25.00
2022-12-01T20:03:47.067Z,24.58
2022-12-01T20:06:17.098Z,25.10
2022-12-01T20:08:44.736Z,24.15
2022-12-01T20:11:12.796Z,23.58
2022-12-01T20:13:41.534Z,47.28
2022-12-01T20:16:17.848Z,25.33
2022-12-01T20:18:45.435Z,25.70
2022-12-01T20:21:20.483Z,26.23
2022-12-01T20:23:59.111Z,24.80
2022-12-01T20:26:32.166Z,22.35
2022-12-01T20:29:06.497Z,22.55
2022-12-01T20:31:33.855Z,21.85
2022-12-01T20:34:11.916Z,21.88
2022-12-01T20:36:39.314Z,24.25
2022-12-01T20:39:07.724Z,21.70
2022-12-01T20:41:35.412Z,22.70
2022-12-01T20:44:07.155Z,20.85
2022-12-01T20:46:35.447Z,22.75
2022-12-01T20:49:02.412Z,20.92
2022-12-01T20:51:33.088Z,21.65
2022-12-01T20:56:49.272Z,21.42
2022-12-01T20:59:16.300Z,22.52
2022-12-01T21:01:42.944Z,24.95
2022-12-01T21:04:09.987Z,22.92
2022-12-01T21:06:36.949Z,26.40
2022-12-01T21:09:04.767Z,23.40
2022-12-01T21:11:55.461Z,22.10
2022-12-01T21:14:28.848Z,24.55
2022-12-01T21:17:01.829Z,24.33
2022-12-01T21:19:49.892Z,23.55
2022-12-01T21:22:16.682Z,24.83
2022-12-01T21:24:48.083Z,22.55
2022-12-01T21:27:17.748Z,23.08
2022-12-01T21:29:48.173Z,24.98
2022-12-01T21:32:18.532Z,24.65
2022-12-01T21:34:47.322Z,24.63
2022-12-01T21:37:24.943Z,25.33
2022-12-01T21:39:55.021Z,22.95
2022-12-01T21:42:30.412Z,24.77
2022-12-01T21:44:57.689Z,24.65
2022-12-01T21:47:27.175Z,24.98
2022-12-01T21:49:58.327Z,25.63
2022-12-01T21:52:30.158Z,24.45
2022-12-01T21:55:27.709Z,24.10
2022-12-01T21:57:54.995Z,24.65
2022-12-01T22:00:32.757Z,25.88
2022-12-01T22:03:08.277Z,27.60
2022-12-01T22:06:01.065Z,25.15
2022-12-01T22:08:36.239Z,25.45
2022-12-01T22:11:03.233Z,26.73
2022-12-01T22:13:42.420Z,26.90
2022-12-01T22:16:27.738Z,28.80
2022-12-01T22:18:59.964Z,25.50
2022-12-01T22:21:35.998Z,26.88
2022-12-01T22:24:25.607Z,27.02
2022-12-01T22:26:56.848Z,27.42
2022-12-01T22:29:33.688Z,27.70
2022-12-01T22:32:29.859Z,28.15
2022-12-01T22:34:59.994Z,28.23
2022-12-01T22:37:38.295Z,28.67
2022-12-01T22:40:27.879Z,28.15
2022-12-01T22:42:55.220Z,29.13
2022-12-01T22:45:26.760Z,28.70
2022-12-01T22:48:01.757Z,28.45
2022-12-01T22:50:31.379Z,29.33
2022-12-01T22:53:29.596Z,28.73
2022-12-01T22:55:59.905Z,28.55
2022-12-01T22:58:34.268Z,27.60
2022-12-01T23:01:28.927Z,28.95
2022-12-01T23:04:11.219Z,31.17
2022-12-01T23:07:16.032Z,30.48
2022-12-01T23:09:44.668Z,31.88
2022-12-01T23:12:11.573Z,31.88
2022-12-01T23:14:44.647Z,31.27
2022-12-01T23:17:19.140Z,32.22
2022-12-01T23:19:48.463Z,30.15
2022-12-01T23:22:16.631Z,24.90
2022-12-01T23:24:45.143Z,31.27
2022-12-01T23:27:13.041Z,31.52
2022-12-01T23:29:39.871Z,29.08
2022-12-01T23:32:06.616Z,31.92
2022-12-01T23:34:34.289Z,32.28
2022-12-01T23:37:01.525Z,31.50
2022-12-01T23:39:35.307Z,30.75
2022-12-01T23:42:03.095Z,31.02
2022-12-01T23:44:42.769Z,31.63
2022-12-01T23:47:18.318Z,30.95
2022-12-01T23:49:47.856Z,29.42
2022-12-01T23:52:19.413Z,32.05
2022-12-01T23:54:47.698Z,30.33
2022-12-01T23:57:21.893Z,32.22
2022-12-01T23:59:51.756Z,31.70
